Time;durP1;ratioP1;P1;durP2;ratioP2;P2;SDS_P1;SDS_P2;PMS_P1;PMS_P2;Temp;Humidity;BMP_temperature;BMP_pressure;BME280_temperature;BME280_humidity;BME280_pressure;Samples;Min_cycle;Max_cycle;Signal;HPM_P1;HPM_P2
2022/05/15 00:01:33;;;;;;;4.88;2.20;;;;;;;22.93;38.93;97095.50;5015358;28;20403;-35
2022/05/15 00:03:59;;;;;;;3.33;2.00;;;;;;;22.94;39.29;97099.78;5015010;28;20018;-34
2022/05/15 00:06:24;;;;;;;7.03;3.08;;;;;;;22.97;39.02;97100.81;5014063;28;20100;-34
2022/05/15 00:08:50;;;;;;;5.30;2.05;;;;;;;23.02;39.03;97092.53;5013355;28;20025;-34
2022/05/15 00:11:19;;;;;;;5.32;2.10;;;;;;;23.01;39.17;97096.56;5014845;28;20024;-36
2022/05/15 00:13:47;;;;;;;9.18;2.95;;;;;;;23.01;38.79;97095.81;5013838;28;20042;-34
2022/05/15 00:16:12;;;;;;;5.15;2.05;;;;;;;23.00;38.95;97095.03;5014426;28;20068;-34
2022/05/15 00:18:38;;;;;;;6.00;2.13;;;;;;;22.95;39.09;97095.78;5014732;28;20067;-35
2022/05/15 00:21:04;;;;;;;4.65;2.83;;;;;;;23.00;39.29;97094.28;5014706;28;20476;-34
2022/05/15 00:23:30;;;;;;;4.15;1.90;;;;;;;22.91;39.20;97095.25;5014361;28;20069;-34
2022/05/15 00:25:56;;;;;;;5.05;2.13;;;;;;;22.91;39.24;97098.00;5014283;28;20053;-34
2022/05/15 00:28:21;;;;;;;5.65;2.42;;;;;;;22.95;39.22;97101.31;5014755;28;20017;-34
2022/05/15 00:30:47;;;;;;;5.93;3.20;;;;;;;22.91;39.31;97096.00;5014712;28;20022;-37
2022/05/15 00:33:13;;;;;;;6.03;2.33;;;;;;;22.92;39.19;97091.22;5014793;28;20376;-35
2022/05/15 00:35:39;;;;;;;4.38;2.25;;;;;;;22.89;39.21;97092.19;5014626;28;20029;-35
2022/05/15 00:38:06;;;;;;;3.63;2.28;;;;;;;22.87;39.35;97078.13;5014554;28;20038;-34
2022/05/15 00:40:34;;;;;;;6.57;2.90;;;;;;;22.92;39.40;97080.16;5014419;28;20543;-34
2022/05/15 00:43:00;;;;;;;6.03;2.42;;;;;;;22.87;39.41;97087.16;5014585;28;20025;-34
2022/05/15 00:45:25;;;;;;;7.53;2.40;;;;;;;22.86;39.06;97076.63;5014260;28;20026;-35
2022/05/15 00:47:51;;;;;;;6.45;2.83;;;;;;;22.81;39.16;97078.09;5014368;28;20033;-34
2022/05/15 00:50:23;;;;;;;4.82;1.85;;;;;;;22.82;39.15;97078.84;5014160;28;20032;-33
2022/05/15 00:52:54;;;;;;;5.80;2.25;;;;;;;22.83;39.10;97080.38;5014597;28;20091;-34
2022/05/15 00:55:24;;;;;;;5.88;2.97;;;;;;;22.86;39.18;97079.38;5014243;28;20472;-34
2022/05/15 00:57:56;;;;;;;5.45;2.30;;;;;;;22.86;38.90;97082.91;5014331;28;20017;-34
2022/05/15 01:00:26;;;;;;;6.50;2.45;;;;;;;22.83;39.30;97085.88;5014072;28;20025;-34
2022/05/15 01:03:00;;;;;;;6.68;2.63;;;;;;;22.82;39.05;97081.59;5014050;28;20029;-35
2022/05/15 01:05:26;;;;;;;5.70;2.47;;;;;;;22.77;38.94;97091.38;5014478;28;20388;-34
2022/05/15 01:07:52;;;;;;;4.22;1.92;;;;;;;22.82;39.01;97087.13;5013931;28;20049;-34
2022/05/15 01:10:18;;;;;;;7.13;2.33;;;;;;;22.77;39.07;97087.84;5013835;28;20496;-35
2022/05/15 01:12:44;;;;;;;4.93;2.38;;;;;;;22.80;39.27;97089.63;5013795;28;20049;-34
2022/05/15 01:15:14;;;;;;;5.32;2.67;;;;;;;22.82;38.94;97089.91;5013942;28;20049;-33
2022/05/15 01:17:39;;;;;;;5.35;2.20;;;;;;;22.73;38.90;97095.59;5014340;28;20018;-34
2022/05/15 01:20:13;;;;;;;4.68;2.08;;;;;;;22.81;38.71;97086.38;5045586;28;20028;-35
2022/05/15 01:22:39;;;;;;;6.80;2.25;;;;;;;22.74;39.33;97086.06;5013593;28;20030;-33
2022/05/15 01:25:13;;;;;;;3.80;2.17;;;;;;;22.80;39.23;97084.88;5013772;28;20029;-35
2022/05/15 01:27:40;;;;;;;4.97;2.15;;;;;;;22.81;39.16;97085.63;5013718;28;20558;-35
2022/05/15 01:30:06;;;;;;;5.53;2.40;;;;;;;22.76;39.25;97087.09;5013719;28;20034;-34
2022/05/15 01:32:32;;;;;;;6.68;2.35;;;;;;;22.76;39.36;97091.84;5013797;28;20072;-34
2022/05/15 01:34:57;;;;;;;7.70;2.35;;;;;;;22.74;38.97;97097.13;5013678;28;20030;-34
2022/05/15 01:37:23;;;;;;;4.43;2.20;;;;;;;22.74;39.15;97086.06;5013683;28;20032;-34
2022/05/15 01:39:49;;;;;;;7.07;2.53;;;;;;;22.70;39.00;97091.81;5013781;28;20101;-34
2022/05/15 01:42:14;;;;;;;7.75;2.15;;;;;;;22.72;39.05;97091.31;5045456;28;20487;-34
2022/05/15 01:44:40;;;;;;;6.10;2.38;;;;;;;22.77;39.26;97074.78;5013555;28;20033;-34
2022/05/15 01:47:06;;;;;;;3.83;2.10;;;;;;;22.74;39.18;97083.28;5013601;28;20029;-34
2022/05/15 01:49:31;;;;;;;6.68;2.17;;;;;;;22.71;39.49;97081.50;5013386;28;20412;-34
2022/05/15 01:51:57;;;;;;;6.25;2.65;;;;;;;22.69;39.22;97090.28;5013501;28;20021;-35
2022/05/15 01:54:23;;;;;;;5.60;2.20;;;;;;;22.78;38.97;97083.84;5013536;28;20030;-34
2022/05/15 01:56:48;;;;;;;5.28;2.47;;;;;;;22.76;39.46;97078.78;5013674;28;20156;-37
2022/05/15 01:59:14;;;;;;;7.00;2.55;;;;;;;22.70;39.46;97091.03;5013474;28;20032;-35
2022/05/15 02:01:40;;;;;;;4.10;2.10;;;;;;;22.66;39.72;97084.97;5013268;28;20080;-34
2022/05/15 02:04:27;;;;;;;4.38;2.47;;;;;;;22.75;39.41;97082.78;5013465;28;20029;-35
2022/05/15 02:07:21;;;;;;;4.75;2.70;;;;;;;22.72;39.19;97080.25;5013140;28;20021;-37
2022/05/15 02:10:11;;;;;;;4.55;2.25;;;;;;;22.67;39.51;97076.19;5013074;28;20153;-34
2022/05/15 02:12:52;;;;;;;4.85;2.67;;;;;;;22.73;39.39;97087.31;5012372;28;20054;-34
2022/05/15 02:15:18;;;;;;;4.47;2.40;;;;;;;22.72;39.53;97083.03;5013067;28;20492;-35
2022/05/15 02:17:43;;;;;;;4.95;2.30;;;;;;;22.75;39.42;97080.00;5013391;28;20044;-34
2022/05/15 02:20:11;;;;;;;5.35;2.63;;;;;;;22.72;39.27;97080.25;5013090;28;20063;-34
2022/05/15 02:22:38;;;;;;;4.93;2.50;;;;;;;22.74;39.47;97080.53;5013149;28;20538;-34
2022/05/15 02:25:06;;;;;;;4.82;2.33;;;;;;;22.75;39.04;97082.03;5013085;28;20105;-34
2022/05/15 02:27:32;;;;;;;6.80;2.55;;;;;;;22.76;39.24;97072.50;5013193;28;20411;-35
2022/05/15 02:29:58;;;;;;;7.47;2.75;;;;;;;22.76;39.24;97075.25;5013119;28;20092;-34
2022/05/15 02:32:24;;;;;;;4.00;2.20;;;;;;;22.73;39.46;97079.75;5014487;28;20476;-35
2022/05/15 02:34:49;;;;;;;5.30;2.47;;;;;;;22.70;39.41;97074.44;5017039;28;20049;-35
2022/05/15 02:37:15;;;;;;;4.60;2.53;;;;;;;22.74;39.60;97075.75;5016856;28;20383;-35
2022/05/15 02:39:41;;;;;;;6.85;2.42;;;;;;;22.72;39.36;97078.25;5016732;28;20026;-35
2022/05/15 02:42:06;;;;;;;5.78;2.38;;;;;;;22.76;39.21;97078.03;5016529;28;20053;-34
2022/05/15 02:44:32;;;;;;;5.53;2.40;;;;;;;22.75;39.09;97082.03;5016610;28;20030;-34
2022/05/15 02:46:58;;;;;;;4.93;2.28;;;;;;;22.70;39.38;97079.97;5016590;28;20029;-34
2022/05/15 02:52:08;;;;;;;7.47;2.63;;;;;;;22.74;39.27;97069.47;5016557;28;20044;-34
2022/05/15 02:54:34;;;;;;;6.85;2.75;;;;;;;22.76;39.10;97067.72;5016536;28;20029;-34
2022/05/15 02:57:02;;;;;;;6.68;2.50;;;;;;;22.71;39.38;97078.75;5016429;28;20025;-36
2022/05/15 02:59:27;;;;;;;5.28;2.60;;;;;;;22.71;39.31;97070.44;5016629;28;20030;-34
2022/05/15 03:01:52;;;;;;;6.20;2.50;;;;;;;22.69;39.02;97073.69;5016482;28;20028;-34
2022/05/15 03:04:18;;;;;;;4.25;2.28;;;;;;;22.76;38.97;97069.72;5016196;28;20029;-36
2022/05/15 03:06:44;;;;;;;6.95;2.95;;;;;;;22.74;38.89;97066.69;5016102;28;20033;-34
2022/05/15 03:09:11;;;;;;;5.80;2.22;;;;;;;22.71;38.83;97073.22;5016303;28;20537;-36
2022/05/15 03:11:36;;;;;;;3.83;2.22;;;;;;;22.59;39.40;97066.84;5016028;28;20018;-33
2022/05/15 03:14:02;;;;;;;4.65;2.70;;;;;;;22.69;38.98;97067.41;5015926;28;20046;-35
2022/05/15 03:16:29;;;;;;;4.22;2.38;;;;;;;22.69;39.02;97075.69;5016082;28;20107;-34
2022/05/15 03:18:55;;;;;;;5.80;2.80;;;;;;;22.71;38.79;97075.97;5016053;28;20041;-34
2022/05/15 03:21:30;;;;;;;4.13;2.25;;;;;;;22.69;38.72;97072.94;5015876;28;20132;-34
2022/05/15 03:23:56;;;;;;;5.60;2.55;;;;;;;22.70;38.61;97077.22;5015986;28;20033;-37
2022/05/15 03:26:22;;;;;;;4.25;2.65;;;;;;;22.66;39.01;97080.19;5015912;28;20022;-34
2022/05/15 03:28:48;;;;;;;5.00;2.63;;;;;;;22.66;38.75;97077.44;5015799;28;20022;-35
2022/05/15 03:31:13;;;;;;;5.85;2.95;;;;;;;22.68;39.03;97079.72;5015788;28;20088;-34
2022/05/15 03:33:39;;;;;;;4.47;2.42;;;;;;;;;;5015606;28;20109;-34
2022/05/15 03:36:10;;;;;;;6.70;2.47;;;;;;;22.72;38.57;97080.25;5047579;28;20076;-34
2022/05/15 03:38:39;;;;;;;4.53;2.28;;;;;;;22.68;38.83;97093.53;5015819;28;20251;-35
2022/05/15 03:41:05;;;;;;;4.20;2.25;;;;;;;22.65;38.91;97086.97;5015438;28;20030;-34
2022/05/15 03:43:34;;;;;;;5.60;2.38;;;;;;;22.60;39.04;97089.72;5014931;28;20048;-35
2022/05/15 03:46:00;;;;;;;3.40;2.30;;;;;;;22.65;38.86;97086.22;5015503;28;20046;-36
2022/05/15 03:48:25;;;;;;;6.43;2.78;;;;;;;22.57;39.32;97088.69;5015607;28;20026;-34
2022/05/15 03:50:51;;;;;;;3.47;2.10;;;;;;;22.61;39.03;97085.69;5015325;28;20018;-34
2022/05/15 03:53:16;;;;;;;2.92;2.05;;;;;;;22.67;38.91;97084.47;5015356;28;20464;-35
2022/05/15 03:55:42;;;;;;;4.32;2.42;;;;;;;22.60;38.82;97084.19;5015648;28;20022;-35
2022/05/15 03:58:07;;;;;;;3.17;2.25;;;;;;;22.65;39.04;97088.97;5015404;28;20030;-34
2022/05/15 04:00:34;;;;;;;4.35;2.50;;;;;;;22.58;38.95;97082.66;5015155;28;20435;-35
2022/05/15 04:03:00;;;;;;;4.75;2.47;;;;;;;22.61;39.26;97091.22;5015288;28;20029;-34
2022/05/15 04:05:25;;;;;;;8.15;2.75;;;;;;;22.58;38.73;97079.13;5015058;28;20029;-35
2022/05/15 04:07:50;;;;;;;4.70;2.63;;;;;;;22.61;38.88;97078.16;5015077;28;20083;-34
2022/05/15 04:10:20;;;;;;;3.17;2.30;;;;;;;22.55;38.92;97080.13;5014974;28;20041;-35
2022/05/15 04:12:45;;;;;;;8.27;2.72;;;;;;;22.59;39.00;97077.91;5014925;28;20397;-34
2022/05/15 04:15:11;;;;;;;6.40;2.63;;;;;;;22.56;39.30;97082.38;5015302;28;20037;-36
2022/05/15 04:17:49;;;;;;;6.50;2.50;;;;;;;22.60;39.30;97092.47;5015043;28;20033;-34
2022/05/15 04:20:17;;;;;;;2.97;2.20;;;;;;;22.57;39.29;97078.38;5014776;28;20033;-34
2022/05/15 04:22:43;;;;;;;5.05;2.28;;;;;;;22.61;39.03;97074.63;5014909;28;20051;-34
2022/05/15 04:25:11;;;;;;;4.03;2.55;;;;;;;22.56;39.23;97082.38;5014959;28;20476;-35
2022/05/15 04:27:37;;;;;;;4.65;2.55;;;;;;;22.57;39.32;97083.16;5046621;28;20033;-35
2022/05/15 04:30:03;;;;;;;6.43;2.45;;;;;;;22.57;39.11;97081.16;5014487;28;20030;-34
2022/05/15 04:32:28;;;;;;;5.00;2.30;;;;;;;22.60;39.03;97081.41;5014668;28;20604;-35
2022/05/15 04:34:54;;;;;;;7.85;3.35;;;;;;;22.62;39.02;97087.22;5014741;28;20120;-34
2022/05/15 04:37:19;;;;;;;4.93;2.80;;;;;;;22.57;39.40;97083.91;5014806;28;20049;-34
2022/05/15 04:39:45;;;;;;;4.97;2.55;;;;;;;22.57;39.27;97086.69;5014435;28;20037;-33
2022/05/15 04:42:10;;;;;;;5.13;2.38;;;;;;;22.58;39.19;97087.44;5014546;28;20026;-36
2022/05/15 04:44:36;;;;;;;3.75;2.40;;;;;;;22.53;39.34;97083.38;5014424;28;20053;-34
2022/05/15 04:47:01;;;;;;;7.28;2.47;;;;;;;22.56;39.10;97090.69;5014373;28;20025;-34
2022/05/15 04:49:27;;;;;;;5.70;2.42;;;;;;;22.58;39.38;97087.44;5014423;28;20510;-34
2022/05/15 04:51:52;;;;;;;4.57;2.40;;;;;;;22.54;39.25;97093.19;5014154;28;20419;-34
2022/05/15 04:54:18;;;;;;;3.97;2.22;;;;;;;22.60;39.16;97100.78;5014162;28;20024;-36
2022/05/15 04:56:43;;;;;;;4.85;2.50;;;;;;;22.53;39.35;97099.94;5013204;28;20018;-34
2022/05/15 04:59:09;;;;;;;8.13;3.10;;;;;;;22.55;39.54;97103.00;5014292;28;20104;-33
2022/05/15 05:01:35;;;;;;;4.22;2.85;;;;;;;22.54;39.53;97100.72;5014209;28;20057;-34
2022/05/15 05:04:01;;;;;;;4.72;2.92;;;;;;;22.57;39.44;97105.25;5014131;28;20072;-34
2022/05/15 05:06:28;;;;;;;4.72;2.70;;;;;;;22.48;39.78;97108.22;5014089;28;20033;-34
2022/05/15 05:08:54;;;;;;;4.28;2.17;;;;;;;22.50;39.95;97105.72;5013975;28;20096;-34
2022/05/15 05:11:19;;;;;;;3.88;2.58;;;;;;;22.53;39.80;97113.78;5014228;28;20520;-34
2022/05/15 05:13:45;;;;;;;8.63;3.38;;;;;;;22.57;39.72;97113.56;5013599;28;20091;-37
2022/05/15 05:16:11;;;;;;;4.90;2.55;;;;;;;22.57;39.51;97117.09;5013678;28;20115;-36
2022/05/15 05:18:36;;;;;;;4.93;2.10;;;;;;;22.53;39.90;97121.31;5013789;28;20026;-35
2022/05/15 05:21:03;;;;;;;5.45;2.60;;;;;;;22.62;39.66;97120.41;5013746;28;20018;-35
2022/05/15 05:23:28;;;;;;;6.03;2.33;;;;;;;22.56;39.87;97123.09;5013754;28;20026;-34
2022/05/15 05:25:53;;;;;;;4.85;2.30;;;;;;;22.58;39.60;97121.38;5013732;28;20024;-34
2022/05/15 05:28:19;;;;;;;5.70;2.78;;;;;;;22.57;39.63;97125.38;5013582;28;20057;-34
2022/05/15 05:30:45;;;;;;;5.78;2.63;;;;;;;22.56;39.58;97129.38;5013726;28;20037;-34
2022/05/15 05:33:11;;;;;;;7.38;2.97;;;;;;;22.56;39.80;97131.38;5013180;28;20080;-37
2022/05/15 05:35:37;;;;;;;3.97;2.40;;;;;;;22.60;39.62;97131.19;5013206;28;20037;-34
2022/05/15 05:38:04;;;;;;;3.72;2.17;;;;;;;22.54;39.71;97137.41;5013369;28;20069;-35
2022/05/15 05:40:30;;;;;;;3.90;2.13;;;;;;;22.57;40.03;97127.38;5013163;28;20025;-35
2022/05/15 05:42:55;;;;;;;6.57;2.60;;;;;;;22.57;39.99;97125.38;5013214;28;20030;-36
2022/05/15 05:45:21;;;;;;;6.22;2.70;;;;;;;22.61;40.02;97138.22;5013161;28;20356;-34
2022/05/15 05:47:49;;;;;;;6.20;2.90;;;;;;;22.56;40.13;97132.16;5013330;28;20030;-34
2022/05/15 05:50:17;;;;;;;4.38;2.63;;;;;;;22.55;40.12;97130.63;5010806;28;20141;-34
2022/05/15 05:52:42;;;;;;;6.63;2.75;;;;;;;22.63;39.77;97132.94;5011424;28;20033;-36
2022/05/15 05:55:11;;;;;;;7.65;2.90;;;;;;;22.63;40.20;97141.25;5011420;28;20025;-35
2022/05/15 05:57:38;;;;;;;4.50;3.00;;;;;;;22.58;39.95;97132.44;5011441;28;20384;-34
2022/05/15 06:00:06;;;;;;;7.65;3.75;;;;;;;22.54;40.13;97131.88;5011352;28;20026;-35
2022/05/15 06:02:31;;;;;;;5.45;2.30;;;;;;;22.56;40.24;97134.91;5011094;28;20038;-35
2022/05/15 06:04:57;;;;;;;4.90;2.38;;;;;;;22.56;39.91;97126.63;5011504;28;20033;-34
2022/05/15 06:07:26;;;;;;;4.15;2.58;;;;;;;22.51;40.13;97124.56;5012658;28;20036;-34
2022/05/15 06:09:52;;;;;;;4.97;2.50;;;;;;;22.54;39.96;97133.88;5015480;28;20590;-35
2022/05/15 06:12:22;;;;;;;4.40;2.70;;;;;;;22.50;40.33;97138.88;5014965;28;20058;-35
2022/05/15 06:14:47;;;;;;;4.57;2.30;;;;;;;22.54;39.90;97136.66;5015421;28;20034;-35
2022/05/15 06:17:13;;;;;;;4.40;2.15;;;;;;;22.50;39.98;97139.63;5015331;28;20037;-34
2022/05/15 06:19:40;;;;;;;3.97;2.25;;;;;;;22.48;40.06;97136.63;5015250;28;20080;-34
2022/05/15 06:22:07;;;;;;;3.53;2.30;;;;;;;22.51;39.90;97130.09;5044899;28;20392;-34
2022/05/15 06:24:32;;;;;;;4.07;2.20;;;;;;;22.54;40.20;97140.16;5014844;28;20124;-34
2022/05/15 06:26:59;;;;;;;5.72;2.28;;;;;;;22.50;40.17;97138.88;5014891;28;20415;-34
2022/05/15 06:29:26;;;;;;;5.07;2.50;;;;;;;22.48;40.20;97141.38;5014862;28;20057;-36
2022/05/15 06:31:52;;;;;;;6.10;2.47;;;;;;;22.50;40.24;97144.41;5015068;28;20101;-34
2022/05/15 06:34:17;;;;;;;4.03;2.35;;;;;;;22.47;40.01;97148.91;5015107;28;20129;-34
2022/05/15 06:36:43;;;;;;;6.93;2.00;;;;;;;22.35;40.18;97147.28;5014518;28;20018;-34
2022/05/15 06:39:09;;;;;;;4.15;2.20;;;;;;;22.31;40.50;97149.50;5014803;28;20026;-34
2022/05/15 06:41:34;;;;;;;7.50;2.53;;;;;;;22.23;40.68;97148.41;5014869;28;20368;-34
2022/05/15 06:44:00;;;;;;;5.18;2.22;;;;;;;22.46;40.04;97155.69;5014606;28;20025;-35
2022/05/15 06:46:29;;;;;;;3.42;2.15;;;;;;;22.45;40.27;97148.63;5014792;28;20165;-34
2022/05/15 06:48:55;;;;;;;4.85;2.60;;;;;;;22.21;40.67;97153.66;5029464;28;20073;-36
2022/05/15 06:51:21;;;;;;;5.25;2.25;;;;;;;22.40;40.39;97146.56;5014598;28;20104;-35
2022/05/15 06:53:47;;;;;;;6.90;2.60;;;;;;;22.30;40.63;97153.50;5014496;28;20033;-36
2022/05/15 06:58:58;;;;;;;7.13;2.63;;;;;;;22.26;40.83;97158.47;5014800;28;20080;-34
2022/05/15 07:01:24;;;;;;;5.38;2.60;;;;;;;22.27;40.49;97160.00;5014142;28;20029;-36
2022/05/15 07:03:49;;;;;;;9.85;3.00;;;;;;;22.41;40.03;97163.91;5014483;28;20037;-34
2022/05/15 07:06:15;;;;;;;14.18;3.13;;;;;;;22.36;40.01;97151.56;5014434;28;20030;-34
2022/05/15 07:08:41;;;;;;;15.55;2.90;;;;;;;22.31;40.09;97154.25;5014273;28;20108;-36
2022/05/15 07:11:07;;;;;;;15.50;2.92;;;;;;;22.19;40.41;97145.09;5014193;28;20125;-34
2022/05/15 07:13:33;;;;;;;13.35;3.22;;;;;;;22.16;40.28;97146.81;5013784;28;20144;-34
2022/05/15 07:15:59;;;;;;;11.27;3.08;;;;;;;22.19;40.25;97145.88;5014183;28;20026;-35
2022/05/15 07:18:25;;;;;;;6.78;2.40;;;;;;;22.31;40.04;97151.50;5013314;28;20037;-36
2022/05/15 07:20:51;;;;;;;9.75;2.63;;;;;;;22.41;39.88;97148.09;5011999;28;20406;-34
2022/05/15 07:23:18;;;;;;;7.43;2.17;;;;;;;22.21;40.21;97150.91;5014114;28;20072;-34
2022/05/15 07:25:44;;;;;;;7.80;2.47;;;;;;;22.29;40.09;97146.47;5013794;28;20022;-35
2022/05/15 07:28:09;;;;;;;8.10;2.83;;;;;;;22.18;40.75;97141.56;5014116;28;20025;-34
2022/05/15 07:30:35;;;;;;;6.43;2.35;;;;;;;22.18;41.01;97135.28;5014176;28;20030;-34
2022/05/15 07:33:01;;;;;;;8.90;2.72;;;;;;;21.24;43.61;97135.63;5047698;28;20036;-31
2022/05/15 07:35:26;;;;;;;12.43;3.45;;;;;;;20.91;44.71;97141.38;5047437;28;20022;-31
2022/05/15 07:37:52;;;;;;;10.73;2.63;;;;;;;21.32;43.78;97138.75;5015676;28;20034;-31
2022/05/15 07:40:18;;;;;;;15.55;2.78;;;;;;;21.10;44.35;97139.16;5015447;28;20018;-32
2022/05/15 07:42:43;;;;;;;22.70;3.33;;;;;;;20.72;44.45;97137.31;5015342;28;20037;-32
2022/05/15 07:45:10;;;;;;;12.00;3.08;;;;;;;21.42;42.65;97140.13;5014661;28;20494;-33
2022/05/15 07:47:35;;;;;;;11.32;3.05;;;;;;;21.75;41.51;97142.56;5014598;28;20036;-32
2022/05/15 07:50:01;;;;;;;4.68;2.40;;;;;;;22.02;41.07;97138.63;5015587;28;20435;-33
2022/05/15 07:52:26;;;;;;;10.00;2.88;;;;;;;22.19;40.39;97139.56;5015409;28;20400;-32
2022/05/15 07:54:52;;;;;;;7.13;2.70;;;;;;;22.17;40.27;97140.06;5015389;28;20104;-33
2022/05/15 07:57:18;;;;;;;6.70;2.53;;;;;;;22.10;40.56;97148.03;5015209;28;20072;-32
2022/05/15 07:59:43;;;;;;;6.13;2.47;;;;;;;22.06;40.86;97148.22;5015266;28;20025;-32
2022/05/15 08:02:09;;;;;;;8.18;3.03;;;;;;;22.16;40.65;97154.34;5015117;28;20049;-33
2022/05/15 08:08:00;;;;;;;7.47;2.65;;;;;;;22.18;40.25;97146.34;5015214;28;20029;-32
2022/05/15 08:10:07;;;;;;;7.05;2.35;;;;;;;22.23;40.44;97153.94;5015297;28;20082;-32
2022/05/15 08:12:34;;;;;;;7.03;2.47;;;;;;;22.13;40.90;97149.81;5015064;28;20103;-33
2022/05/15 08:15:00;;;;;;;8.70;2.58;;;;;;;22.28;40.56;97156.00;5015063;28;20057;-33
2022/05/15 08:17:26;;;;;;;8.60;2.75;;;;;;;22.16;40.76;97160.63;5046749;28;20034;-33
2022/05/15 08:25:20;;;;;;;4.28;2.40;;;;;;;22.27;40.74;97148.94;5014952;28;21358;-34
2022/05/15 08:27:45;;;;;;;4.60;2.13;;;;;;;22.44;40.41;97141.59;5046431;28;20460;-33
2022/05/15 08:30:11;;;;;;;6.78;2.55;;;;;;;22.45;40.18;97145.13;5014525;28;20038;-32
2022/05/15 08:32:37;;;;;;;6.32;2.47;;;;;;;22.30;40.63;97149.97;5014887;28;20030;-32
2022/05/15 08:35:03;;;;;;;5.05;2.42;;;;;;;22.42;40.48;97146.84;5014591;28;20026;-34
2022/05/15 08:37:28;;;;;;;5.32;2.30;;;;;;;22.47;40.44;97146.16;5014808;28;20160;-33
2022/05/15 08:39:53;;;;;;;7.60;2.42;;;;;;;22.40;40.73;97145.81;5014664;28;20045;-32
2022/05/15 08:42:22;;;;;;;4.88;2.28;;;;;;;22.33;40.81;97149.78;5014275;28;20033;-32
2022/05/15 08:44:53;;;;;;;6.30;2.38;;;;;;;22.47;40.14;97146.16;5014568;28;20022;-32
2022/05/15 08:47:54;;;;;;;6.05;2.63;;;;;;;22.44;40.50;97155.41;5014316;28;20022;-32
2022/05/15 08:50:26;;;;;;;7.00;2.92;;;;;;;22.13;41.48;97153.31;5012100;28;20073;-32
2022/05/15 08:52:54;;;;;;;5.70;2.40;;;;;;;22.26;40.83;97158.47;5014358;28;20026;-34
2022/05/15 08:55:39;;;;;;;7.13;2.45;;;;;;;22.35;40.74;97150.06;5013991;28;20022;-33
2022/05/15 08:58:06;;;;;;;4.28;2.47;;;;;;;22.49;40.16;97168.53;5014097;28;20059;-32
2022/05/15 09:00:46;;;;;;;4.75;2.60;;;;;;;22.43;40.08;97162.19;5014106;28;20080;-32
2022/05/15 09:03:17;;;;;;;5.93;2.28;;;;;;;22.44;40.35;97163.69;5012978;28;20037;-32
2022/05/15 09:05:52;;;;;;;6.90;2.70;;;;;;;22.44;40.54;97160.94;5014034;28;20049;-32
2022/05/15 09:08:30;;;;;;;4.65;2.25;;;;;;;22.46;40.67;97169.50;5014192;28;20022;-32
2022/05/15 09:11:04;;;;;;;5.57;2.70;;;;;;;22.40;40.68;97154.09;5014023;28;20029;-32
2022/05/15 09:13:39;;;;;;;9.27;2.70;;;;;;;22.35;41.08;97166.63;5013687;28;20057;-33
2022/05/15 09:16:14;;;;;;;6.57;2.00;;;;;;;22.38;40.91;97162.13;5014143;28;20071;-33
2022/05/15 09:18:40;;;;;;;5.70;2.33;;;;;;;22.24;41.39;97166.53;5012970;28;20029;-32
2022/05/15 09:21:12;;;;;;;5.13;2.40;;;;;;;22.46;40.63;97166.75;4992220;28;20057;-33
2022/05/15 09:23:45;;;;;;;5.93;2.47;;;;;;;22.54;40.21;97162.28;5023667;28;20034;-33
2022/05/15 09:26:10;;;;;;;3.33;2.28;;;;;;;22.54;39.92;97156.75;4992390;28;20029;-32
2022/05/15 09:28:46;;;;;;;3.38;2.38;;;;;;;22.53;40.33;97171.06;4992174;28;20034;-33
2022/05/15 09:31:38;;;;;;;4.38;2.42;;;;;;;22.51;39.99;97162.50;4992075;28;20023;-32
2022/05/15 09:34:26;;;;;;;4.93;2.45;;;;;;;22.57;40.06;97172.38;4992238;28;20022;-32
2022/05/15 09:38:26;;;;;;;6.28;2.67;;;;;;;22.52;40.39;97164.78;4992157;28;20072;-33
2022/05/15 09:39:42;;;;;;;6.00;2.38;;;;;;;22.35;40.63;97161.09;4992321;28;20123;-32
2022/05/15 09:45:07;;;;;;;3.67;2.20;;;;;;;22.55;40.04;97158.28;4991995;28;20125;-32
2022/05/15 09:47:38;;;;;;;4.15;2.30;;;;;;;22.55;40.04;97160.28;4992139;28;20030;-33
2022/05/15 09:50:09;;;;;;;6.38;2.75;;;;;;;22.61;40.06;97155.56;4991988;28;20026;-36
2022/05/15 09:52:42;;;;;;;4.47;2.30;;;;;;;22.61;40.02;97152.06;4992041;28;20022;-33
2022/05/15 09:55:12;;;;;;;3.92;2.08;;;;;;;22.60;39.98;97150.53;4991752;28;20112;-33
2022/05/15 09:57:52;;;;;;;4.18;2.10;;;;;;;22.50;40.17;97153.44;4992312;28;20424;-33
2022/05/15 10:00:21;;;;;;;5.28;2.25;;;;;;;22.53;40.02;97160.75;4992029;28;20030;-33
2022/05/15 10:02:49;;;;;;;5.28;2.70;;;;;;;22.58;40.19;97157.31;4991994;28;20037;-34
2022/05/15 10:05:15;;;;;;;3.75;2.10;;;;;;;22.63;40.16;97157.81;4991785;28;20037;-33
2022/05/15 10:07:48;;;;;;;4.30;2.28;;;;;;;22.63;39.72;97168.88;4991690;28;20023;-33
2022/05/15 10:10:22;;;;;;;5.32;2.40;;;;;;;22.60;40.07;97156.06;4990135;28;20034;-32
2022/05/15 10:12:52;;;;;;;5.63;2.22;;;;;;;22.54;40.36;97162.28;4991720;28;20381;-34
2022/05/15 10:15:19;;;;;;;4.13;2.22;;;;;;;22.54;39.95;97167.06;4991710;28;20030;-33
2022/05/15 10:17:54;;;;;;;4.65;2.08;;;;;;;22.57;39.94;97163.31;4991828;28;20030;-33
2022/05/15 10:20:29;;;;;;;4.57;2.30;;;;;;;22.37;40.22;97169.66;4991318;28;20499;-32
2022/05/15 10:23:08;;;;;;;3.70;2.10;;;;;;;22.50;40.21;97167.25;4991861;28;20034;-32
2022/05/15 10:25:49;;;;;;;6.38;2.40;;;;;;;22.63;40.07;97160.59;4991759;28;20045;-34
2022/05/15 10:28:38;;;;;;;13.30;2.80;;;;;;;22.63;39.91;97163.34;4991588;28;20042;-32
2022/05/15 10:31:46;;;;;;;4.30;2.30;;;;;;;22.61;39.94;97160.34;4991549;28;20106;-32
2022/05/15 10:34:14;;;;;;;3.38;1.98;;;;;;;22.63;40.05;97152.28;4962304;28;20023;-32
2022/05/15 10:36:54;;;;;;;3.47;2.20;;;;;;;22.59;40.26;97155.31;4950348;29;20039;-32
2022/05/15 10:39:36;;;;;;;6.00;2.20;;;;;;;22.62;40.14;97156.34;4962177;28;20186;-33
2022/05/15 10:42:40;;;;;;;7.72;2.63;;;;;;;22.65;40.34;97156.09;4969432;28;20460;-32
2022/05/15 10:45:31;;;;;;;6.72;2.60;;;;;;;22.70;40.20;97152.63;4966970;28;20140;-33
2022/05/15 10:48:34;;;;;;;5.07;2.83;;;;;;;22.61;40.65;97152.06;4969478;28;20050;-32
2022/05/15 10:51:15;;;;;;;7.50;2.60;;;;;;;22.66;40.38;97148.56;4962057;28;20034;-34
2022/05/15 10:59:59;;;;;;;5.07;2.00;;;;;;;22.66;40.66;97143.03;4954091;29;20062;-33
2022/05/15 11:02:58;;;;;;;4.82;2.10;;;;;;;22.74;40.09;97136.59;4953627;29;20039;-34
2022/05/15 11:05:30;;;;;;;3.05;1.92;;;;;;;22.72;40.48;97141.09;4982142;28;20038;-32
2022/05/15 11:08:08;;;;;;;7.47;2.42;;;;;;;22.68;40.60;97148.84;5001243;28;20396;-32
2022/05/15 11:10:53;;;;;;;5.30;2.83;;;;;;;22.78;40.36;97136.38;5015588;28;20029;-32
2022/05/15 11:13:35;;;;;;;6.78;2.20;;;;;;;22.80;40.14;97136.66;5015486;28;20054;-32
2022/05/15 11:16:12;;;;;;;7.22;2.42;;;;;;;22.76;40.45;97139.63;5016035;28;20033;-33
2022/05/15 11:19:11;;;;;;;6.82;2.20;;;;;;;22.79;40.24;97130.34;5015786;28;20091;-33
2022/05/15 11:21:51;;;;;;;4.15;2.13;;;;;;;22.82;40.09;97132.16;4993491;28;20049;-33
2022/05/15 11:24:40;;;;;;;4.85;2.03;;;;;;;22.77;40.47;97134.84;5016201;28;20081;-32
2022/05/15 11:27:16;;;;;;;4.45;2.30;;;;;;;22.74;40.50;97135.81;5008876;28;20049;-32
2022/05/15 11:29:47;;;;;;;4.38;1.90;;;;;;;22.77;40.43;97129.31;5011861;28;20026;-32
2022/05/15 11:32:36;;;;;;;6.63;2.05;;;;;;;22.80;40.49;97126.34;5013918;28;20022;-33
2022/05/15 11:35:10;;;;;;;4.50;2.25;;;;;;;22.84;40.19;97123.38;5013567;28;20030;-33
2022/05/15 11:37:44;;;;;;;4.22;2.10;;;;;;;22.84;40.22;97129.66;5013896;28;20403;-32
2022/05/15 11:40:27;;;;;;;5.88;2.53;;;;;;;22.82;40.38;97126.63;5013479;28;20026;-33
2022/05/15 11:42:52;;;;;;;6.47;2.15;;;;;;;22.86;40.26;97123.63;5013612;28;20021;-33
2022/05/15 11:45:27;;;;;;;6.93;2.08;;;;;;;22.92;40.26;97127.19;5013668;28;20040;-32
2022/05/15 11:48:02;;;;;;;4.70;1.90;;;;;;;22.89;40.22;97122.63;5013472;28;20050;-32
2022/05/15 11:50:38;;;;;;;6.10;2.40;;;;;;;22.84;40.42;97117.84;5012204;28;20384;-35
2022/05/15 11:53:13;;;;;;;4.22;2.00;;;;;;;22.91;40.06;97122.91;5013618;28;20025;-32
2022/05/15 11:55:49;;;;;;;3.30;1.92;;;;;;;22.79;40.78;97126.84;5013442;28;20026;-33
2022/05/15 11:58:26;;;;;;;6.10;2.05;;;;;;;22.76;40.69;97119.50;5012094;28;20029;-32
2022/05/15 12:01:05;;;;;;;6.18;2.22;;;;;;;22.87;40.39;97125.16;5013324;28;20495;-33
2022/05/15 12:03:34;;;;;;;6.30;2.30;;;;;;;22.88;40.38;97118.34;5013014;28;20025;-34
2022/05/15 12:06:09;;;;;;;6.10;2.40;;;;;;;22.81;40.87;97125.09;5012473;28;20040;-33
2022/05/15 12:08:38;;;;;;;5.97;2.33;;;;;;;22.86;40.87;97120.88;5013221;28;20026;-33